Schedule Details


Flight Number: CTN700
Departure: Franjo Tudman (LDZA) at 08:00
Arrival: Lisbon (LPPT) at 10:15
Route: KOTOR?UT742?NAKIT?UL615?ROTAR?DCT?BENUS?DCT?IVLOX?DCT?DORAV?DCT?BORDI?UZ185?KOLON?UM984?DIVKO?UN975?BGR?UQ47?ASTRO?UM985?YES?UN747?SVL?UM744?ROSAL?UZ227?EXONA

Weather Information
LDZA 171130Z VRB02KT CAVOK 20/12 Q1020 NOSIG
LPPT 171130Z 34004KT 270V040 9999 BKN026 20/13 Q1018
Schedule Frequency

Route Map